sensor_id;sensor_type;location;lat;lon;timestamp;P1;durP1;ratioP1;P2;durP2;ratioP2
41984;SDS011;28319;48.116;10.818;2023-06-05T00:04:30;6.10;;;4.03;;
41984;SDS011;28319;48.116;10.818;2023-06-05T00:09:32;4.35;;;3.80;;
41984;SDS011;28319;48.116;10.818;2023-06-05T00:14:35;6.15;;;4.05;;
41984;SDS011;28319;48.116;10.818;2023-06-05T00:19:37;6.32;;;4.65;;
41984;SDS011;28319;48.116;10.818;2023-06-05T00:24:39;5.20;;;4.47;;
41984;SDS011;28319;48.116;10.818;2023-06-05T00:29:43;5.78;;;4.43;;
41984;SDS011;28319;48.116;10.818;2023-06-05T00:34:45;5.10;;;3.63;;
41984;SDS011;28319;48.116;10.818;2023-06-05T00:39:50;6.57;;;4.13;;
41984;SDS011;28319;48.116;10.818;2023-06-05T00:44:53;4.47;;;4.07;;
41984;SDS011;28319;48.116;10.818;2023-06-05T00:49:55;4.05;;;3.65;;
41984;SDS011;28319;48.116;10.818;2023-06-05T00:54:58;3.92;;;3.40;;
41984;SDS011;28319;48.116;10.818;2023-06-05T01:00:02;4.20;;;3.75;;
41984;SDS011;28319;48.116;10.818;2023-06-05T01:05:07;5.55;;;3.60;;
41984;SDS011;28319;48.116;10.818;2023-06-05T01:10:10;6.43;;;3.55;;
41984;SDS011;28319;48.116;10.818;2023-06-05T01:15:13;3.88;;;3.50;;
41984;SDS011;28319;48.116;10.818;2023-06-05T01:20:18;5.65;;;3.67;;
41984;SDS011;28319;48.116;10.818;2023-06-05T01:25:22;3.80;;;3.50;;
41984;SDS011;28319;48.116;10.818;2023-06-05T01:30:26;6.60;;;3.92;;
41984;SDS011;28319;48.116;10.818;2023-06-05T01:35:31;4.10;;;3.28;;
41984;SDS011;28319;48.116;10.818;2023-06-05T01:40:37;5.50;;;3.80;;
41984;SDS011;28319;48.116;10.818;2023-06-05T01:45:40;3.75;;;3.30;;
41984;SDS011;28319;48.116;10.818;2023-06-05T01:50:43;4.00;;;3.60;;
41984;SDS011;28319;48.116;10.818;2023-06-05T01:55:47;4.63;;;3.35;;
41984;SDS011;28319;48.116;10.818;2023-06-05T02:00:52;6.18;;;3.65;;
41984;SDS011;28319;48.116;10.818;2023-06-05T02:05:56;4.10;;;3.70;;
41984;SDS011;28319;48.116;10.818;2023-06-05T02:11:00;3.78;;;3.10;;
41984;SDS011;28319;48.116;10.818;2023-06-05T02:16:02;6.03;;;3.20;;
41984;SDS011;28319;48.116;10.818;2023-06-05T02:21:04;3.93;;;3.53;;
41984;SDS011;28319;48.116;10.818;2023-06-05T02:26:07;3.57;;;3.20;;
41984;SDS011;28319;48.116;10.818;2023-06-05T02:31:09;5.90;;;3.13;;
41984;SDS011;28319;48.116;10.818;2023-06-05T02:36:16;4.13;;;3.00;;
41984;SDS011;28319;48.116;10.818;2023-06-05T02:41:20;4.90;;;2.87;;
41984;SDS011;28319;48.116;10.818;2023-06-05T02:46:22;3.70;;;2.83;;
41984;SDS011;28319;48.116;10.818;2023-06-05T02:51:25;4.17;;;3.00;;
41984;SDS011;28319;48.116;10.818;2023-06-05T02:56:28;4.38;;;2.72;;
41984;SDS011;28319;48.116;10.818;2023-06-05T03:01:30;3.05;;;2.60;;
41984;SDS011;28319;48.116;10.818;2023-06-05T03:06:34;3.00;;;2.60;;
41984;SDS011;28319;48.116;10.818;2023-06-05T03:11:37;3.20;;;3.00;;
41984;SDS011;28319;48.116;10.818;2023-06-05T03:16:39;3.33;;;3.07;;
41984;SDS011;28319;48.116;10.818;2023-06-05T03:21:44;3.43;;;2.97;;
41984;SDS011;28319;48.116;10.818;2023-06-05T03:26:49;2.90;;;2.70;;
41984;SDS011;28319;48.116;10.818;2023-06-05T03:31:50;3.10;;;2.83;;
41984;SDS011;28319;48.116;10.818;2023-06-05T03:36:52;3.30;;;3.00;;
41984;SDS011;28319;48.116;10.818;2023-06-05T03:41:56;3.10;;;2.80;;
41984;SDS011;28319;48.116;10.818;2023-06-05T03:46:58;4.13;;;3.60;;
41984;SDS011;28319;48.116;10.818;2023-06-05T03:52:00;3.93;;;3.53;;
41984;SDS011;28319;48.116;10.818;2023-06-05T03:57:05;4.40;;;3.40;;
41984;SDS011;28319;48.116;10.818;2023-06-05T04:02:09;5.80;;;3.67;;
41984;SDS011;28319;48.116;10.818;2023-06-05T04:07:11;6.53;;;3.63;;
41984;SDS011;28319;48.116;10.818;2023-06-05T04:12:15;4.37;;;3.57;;
41984;SDS011;28319;48.116;10.818;2023-06-05T04:17:19;4.17;;;3.57;;
41984;SDS011;28319;48.116;10.818;2023-06-05T04:22:21;5.33;;;3.73;;
41984;SDS011;28319;48.116;10.818;2023-06-05T04:27:25;4.10;;;3.70;;
41984;SDS011;28319;48.116;10.818;2023-06-05T04:32:28;7.40;;;4.25;;
41984;SDS011;28319;48.116;10.818;2023-06-05T04:37:34;4.80;;;3.90;;
41984;SDS011;28319;48.116;10.818;2023-06-05T04:42:38;5.50;;;4.23;;
41984;SDS011;28319;48.116;10.818;2023-06-05T04:47:41;6.73;;;4.17;;
41984;SDS011;28319;48.116;10.818;2023-06-05T04:52:44;5.43;;;4.37;;
41984;SDS011;28319;48.116;10.818;2023-06-05T04:57:47;4.63;;;4.13;;
41984;SDS011;28319;48.116;10.818;2023-06-05T05:02:49;6.40;;;4.70;;
41984;SDS011;28319;48.116;10.818;2023-06-05T05:07:52;8.10;;;5.43;;
41984;SDS011;28319;48.116;10.818;2023-06-05T05:12:56;5.57;;;4.60;;
41984;SDS011;28319;48.116;10.818;2023-06-05T05:18:01;9.63;;;4.83;;
41984;SDS011;28319;48.116;10.818;2023-06-05T05:23:03;11.87;;;5.67;;
41984;SDS011;28319;48.116;10.818;2023-06-05T05:28:09;6.85;;;5.15;;
41984;SDS011;28319;48.116;10.818;2023-06-05T05:33:12;7.68;;;5.10;;
41984;SDS011;28319;48.116;10.818;2023-06-05T05:38:14;5.80;;;5.10;;
41984;SDS011;28319;48.116;10.818;2023-06-05T05:43:17;5.18;;;4.60;;
41984;SDS011;28319;48.116;10.818;2023-06-05T05:48:19;6.97;;;5.03;;
41984;SDS011;28319;48.116;10.818;2023-06-05T05:53:22;6.35;;;5.60;;
41984;SDS011;28319;48.116;10.818;2023-06-05T05:58:26;8.10;;;5.78;;
41984;SDS011;28319;48.116;10.818;2023-06-05T06:03:28;7.35;;;5.60;;
41984;SDS011;28319;48.116;10.818;2023-06-05T06:08:32;6.18;;;5.50;;
41984;SDS011;28319;48.116;10.818;2023-06-05T06:13:36;4.97;;;4.47;;
41984;SDS011;28319;48.116;10.818;2023-06-05T06:18:38;6.10;;;5.35;;
41984;SDS011;28319;48.116;10.818;2023-06-05T06:23:40;6.95;;;6.18;;
41984;SDS011;28319;48.116;10.818;2023-06-05T06:28:44;6.43;;;5.60;;
41984;SDS011;28319;48.116;10.818;2023-06-05T06:33:46;6.22;;;5.38;;
41984;SDS011;28319;48.116;10.818;2023-06-05T06:38:47;6.35;;;5.65;;
41984;SDS011;28319;48.116;10.818;2023-06-05T06:43:51;8.10;;;5.63;;
41984;SDS011;28319;48.116;10.818;2023-06-05T06:48:53;6.00;;;5.30;;
41984;SDS011;28319;48.116;10.818;2023-06-05T06:53:55;10.70;;;5.80;;
41984;SDS011;28319;48.116;10.818;2023-06-05T06:58:59;6.00;;;5.40;;
41984;SDS011;28319;48.116;10.818;2023-06-05T07:04:02;6.50;;;5.43;;
41984;SDS011;28319;48.116;10.818;2023-06-05T07:09:04;6.53;;;5.70;;
41984;SDS011;28319;48.116;10.818;2023-06-05T07:14:09;6.10;;;5.50;;
41984;SDS011;28319;48.116;10.818;2023-06-05T07:19:12;7.25;;;5.95;;
41984;SDS011;28319;48.116;10.818;2023-06-05T07:24:14;6.05;;;5.20;;
41984;SDS011;28319;48.116;10.818;2023-06-05T07:29:19;6.10;;;5.50;;
41984;SDS011;28319;48.116;10.818;2023-06-05T07:34:23;5.95;;;5.35;;
41984;SDS011;28319;48.116;10.818;2023-06-05T07:39:26;5.05;;;4.60;;
41984;SDS011;28319;48.116;10.818;2023-06-05T07:44:30;6.82;;;5.22;;
41984;SDS011;28319;48.116;10.818;2023-06-05T07:49:31;5.20;;;4.70;;
41984;SDS011;28319;48.116;10.818;2023-06-05T07:54:33;5.35;;;4.85;;
41984;SDS011;28319;48.116;10.818;2023-06-05T07:59:37;5.18;;;4.60;;
41984;SDS011;28319;48.116;10.818;2023-06-05T08:04:39;6.18;;;4.60;;
41984;SDS011;28319;48.116;10.818;2023-06-05T08:09:41;8.30;;;4.38;;
41984;SDS011;28319;48.116;10.818;2023-06-05T08:14:44;4.32;;;3.92;;
41984;SDS011;28319;48.116;10.818;2023-06-05T08:19:46;6.05;;;4.20;;
41984;SDS011;28319;48.116;10.818;2023-06-05T08:24:48;5.18;;;4.60;;
41984;SDS011;28319;48.116;10.818;2023-06-05T08:29:55;4.47;;;4.07;;
41984;SDS011;28319;48.116;10.818;2023-06-05T08:34:57;6.63;;;4.20;;
41984;SDS011;28319;48.116;10.818;2023-06-05T08:39:59;4.95;;;4.20;;
41984;SDS011;28319;48.116;10.818;2023-06-05T08:45:08;5.28;;;4.78;;
41984;SDS011;28319;48.116;10.818;2023-06-05T08:50:10;7.80;;;4.47;;
41984;SDS011;28319;48.116;10.818;2023-06-05T08:55:12;5.03;;;4.53;;
41984;SDS011;28319;48.116;10.818;2023-06-05T09:00:17;5.65;;;4.45;;
41984;SDS011;28319;48.116;10.818;2023-06-05T09:05:19;6.68;;;4.50;;
41984;SDS011;28319;48.116;10.818;2023-06-05T09:10:21;5.68;;;4.68;;
41984;SDS011;28319;48.116;10.818;2023-06-05T09:15:26;4.50;;;4.10;;
41984;SDS011;28319;48.116;10.818;2023-06-05T09:20:30;4.90;;;3.75;;
41984;SDS011;28319;48.116;10.818;2023-06-05T09:30:57;4.13;;;3.70;;
41984;SDS011;28319;48.116;10.818;2023-06-05T09:36:02;10.88;;;4.10;;
41984;SDS011;28319;48.116;10.818;2023-06-05T09:41:06;3.85;;;3.55;;
41984;SDS011;28319;48.116;10.818;2023-06-05T09:46:11;4.35;;;3.72;;
41984;SDS011;28319;48.116;10.818;2023-06-05T09:51:14;5.90;;;3.80;;
41984;SDS011;28319;48.116;10.818;2023-06-05T09:56:19;5.32;;;3.85;;
41984;SDS011;28319;48.116;10.818;2023-06-05T10:01:24;6.40;;;3.75;;
41984;SDS011;28319;48.116;10.818;2023-06-05T10:06:28;4.05;;;3.72;;
41984;SDS011;28319;48.116;10.818;2023-06-05T10:11:30;6.13;;;3.67;;
41984;SDS011;28319;48.116;10.818;2023-06-05T10:16:34;4.15;;;3.60;;
41984;SDS011;28319;48.116;10.818;2023-06-05T10:21:37;5.18;;;3.38;;
41984;SDS011;28319;48.116;10.818;2023-06-05T10:32:16;4.95;;;3.28;;
41984;SDS011;28319;48.116;10.818;2023-06-05T10:37:32;3.55;;;3.25;;
41984;SDS011;28319;48.116;10.818;2023-06-05T10:42:58;4.18;;;3.70;;
41984;SDS011;28319;48.116;10.818;2023-06-05T10:54:11;6.25;;;3.90;;
41984;SDS011;28319;48.116;10.818;2023-06-05T10:59:16;3.78;;;3.47;;
41984;SDS011;28319;48.116;10.818;2023-06-05T11:04:22;3.60;;;3.30;;
41984;SDS011;28319;48.116;10.818;2023-06-05T11:09:24;3.88;;;3.58;;
41984;SDS011;28319;48.116;10.818;2023-06-05T11:14:43;3.65;;;3.15;;
41984;SDS011;28319;48.116;10.818;2023-06-05T11:19:47;4.55;;;3.63;;
41984;SDS011;28319;48.116;10.818;2023-06-05T11:30:25;4.60;;;3.50;;
41984;SDS011;28319;48.116;10.818;2023-06-05T11:35:30;3.83;;;3.33;;
41984;SDS011;28319;48.116;10.818;2023-06-05T11:40:33;4.88;;;3.08;;
41984;SDS011;28319;48.116;10.818;2023-06-05T11:45:35;4.65;;;3.55;;
41984;SDS011;28319;48.116;10.818;2023-06-05T11:50:40;3.70;;;3.40;;
41984;SDS011;28319;48.116;10.818;2023-06-05T11:55:54;4.88;;;3.67;;
41984;SDS011;28319;48.116;10.818;2023-06-05T12:01:07;3.83;;;3.40;;
41984;SDS011;28319;48.116;10.818;2023-06-05T12:06:16;5.32;;;3.88;;
41984;SDS011;28319;48.116;10.818;2023-06-05T12:11:19;4.30;;;3.40;;
41984;SDS011;28319;48.116;10.818;2023-06-05T12:16:29;3.70;;;3.20;;
41984;SDS011;28319;48.116;10.818;2023-06-05T12:21:33;3.95;;;3.50;;
41984;SDS011;28319;48.116;10.818;2023-06-05T12:26:51;4.18;;;3.50;;
41984;SDS011;28319;48.116;10.818;2023-06-05T12:31:54;4.45;;;3.15;;
41984;SDS011;28319;48.116;10.818;2023-06-05T12:36:59;5.50;;;3.47;;
41984;SDS011;28319;48.116;10.818;2023-06-05T12:42:01;6.10;;;4.07;;
41984;SDS011;28319;48.116;10.818;2023-06-05T12:47:03;5.13;;;3.60;;
41984;SDS011;28319;48.116;10.818;2023-06-05T12:52:07;3.97;;;3.53;;
41984;SDS011;28319;48.116;10.818;2023-06-05T12:57:09;3.95;;;3.58;;
41984;SDS011;28319;48.116;10.818;2023-06-05T13:02:12;5.78;;;3.30;;
41984;SDS011;28319;48.116;10.818;2023-06-05T13:07:15;6.68;;;3.40;;
41984;SDS011;28319;48.116;10.818;2023-06-05T13:12:18;4.82;;;3.40;;
41984;SDS011;28319;48.116;10.818;2023-06-05T13:17:20;4.65;;;3.85;;
41984;SDS011;28319;48.116;10.818;2023-06-05T13:22:24;7.43;;;3.30;;
41984;SDS011;28319;48.116;10.818;2023-06-05T13:27:26;3.83;;;3.42;;
41984;SDS011;28319;48.116;10.818;2023-06-05T13:32:28;4.22;;;3.83;;
41984;SDS011;28319;48.116;10.818;2023-06-05T13:37:33;4.43;;;4.03;;
41984;SDS011;28319;48.116;10.818;2023-06-05T13:42:35;4.90;;;3.30;;
41984;SDS011;28319;48.116;10.818;2023-06-05T13:47:37;4.57;;;3.47;;
41984;SDS011;28319;48.116;10.818;2023-06-05T13:52:40;4.32;;;3.80;;
41984;SDS011;28319;48.116;10.818;2023-06-05T13:57:43;3.92;;;3.50;;
41984;SDS011;28319;48.116;10.818;2023-06-05T14:02:45;5.38;;;3.90;;
41984;SDS011;28319;48.116;10.818;2023-06-05T14:07:49;4.40;;;3.65;;
41984;SDS011;28319;48.116;10.818;2023-06-05T14:12:52;7.32;;;3.35;;
41984;SDS011;28319;48.116;10.818;2023-06-05T14:17:54;5.75;;;3.40;;
41984;SDS011;28319;48.116;10.818;2023-06-05T14:22:57;5.82;;;3.70;;
41984;SDS011;28319;48.116;10.818;2023-06-05T14:28:01;3.78;;;3.40;;
41984;SDS011;28319;48.116;10.818;2023-06-05T14:33:03;4.20;;;3.80;;
41984;SDS011;28319;48.116;10.818;2023-06-05T14:38:07;8.73;;;3.88;;
41984;SDS011;28319;48.116;10.818;2023-06-05T14:43:12;5.63;;;3.75;;
41984;SDS011;28319;48.116;10.818;2023-06-05T14:48:14;5.13;;;3.42;;
41984;SDS011;28319;48.116;10.818;2023-06-05T14:53:17;4.90;;;3.90;;
41984;SDS011;28319;48.116;10.818;2023-06-05T14:58:19;3.67;;;3.38;;
41984;SDS011;28319;48.116;10.818;2023-06-05T15:03:21;3.85;;;3.20;;
41984;SDS011;28319;48.116;10.818;2023-06-05T15:08:24;4.60;;;3.72;;
41984;SDS011;28319;48.116;10.818;2023-06-05T15:13:26;4.35;;;3.95;;
41984;SDS011;28319;48.116;10.818;2023-06-05T15:18:28;4.22;;;3.83;;
41984;SDS011;28319;48.116;10.818;2023-06-05T15:23:32;7.97;;;3.83;;
41984;SDS011;28319;48.116;10.818;2023-06-05T15:28:34;9.98;;;3.60;;
41984;SDS011;28319;48.116;10.818;2023-06-05T15:33:35;3.90;;;3.60;;
41984;SDS011;28319;48.116;10.818;2023-06-05T15:38:39;3.90;;;3.50;;
41984;SDS011;28319;48.116;10.818;2023-06-05T15:43:41;4.00;;;3.67;;
41984;SDS011;28319;48.116;10.818;2023-06-05T15:48:43;4.90;;;3.33;;
41984;SDS011;28319;48.116;10.818;2023-06-05T15:53:46;3.30;;;3.00;;
41984;SDS011;28319;48.116;10.818;2023-06-05T15:58:48;5.32;;;3.00;;
41984;SDS011;28319;48.116;10.818;2023-06-05T16:03:50;3.55;;;2.88;;
41984;SDS011;28319;48.116;10.818;2023-06-05T16:08:54;3.85;;;2.90;;
41984;SDS011;28319;48.116;10.818;2023-06-05T16:13:56;3.80;;;3.08;;
41984;SDS011;28319;48.116;10.818;2023-06-05T16:18:59;5.90;;;3.20;;
41984;SDS011;28319;48.116;10.818;2023-06-05T16:24:05;3.63;;;3.20;;
41984;SDS011;28319;48.116;10.818;2023-06-05T16:29:07;3.90;;;3.03;;
41984;SDS011;28319;48.116;10.818;2023-06-05T16:34:10;3.33;;;3.05;;
41984;SDS011;28319;48.116;10.818;2023-06-05T16:39:15;5.95;;;3.10;;
41984;SDS011;28319;48.116;10.818;2023-06-05T16:44:17;4.32;;;3.20;;
41984;SDS011;28319;48.116;10.818;2023-06-05T16:49:19;3.95;;;3.22;;
41984;SDS011;28319;48.116;10.818;2023-06-05T16:54:23;4.90;;;3.30;;
41984;SDS011;28319;48.116;10.818;2023-06-05T17:05:01;16.33;;;3.28;;
41984;SDS011;28319;48.116;10.818;2023-06-05T17:10:06;12.40;;;2.92;;
41984;SDS011;28319;48.116;10.818;2023-06-05T17:15:09;7.10;;;2.95;;
41984;SDS011;28319;48.116;10.818;2023-06-05T17:20:12;8.25;;;4.00;;
41984;SDS011;28319;48.116;10.818;2023-06-05T17:25:16;3.88;;;2.90;;
41984;SDS011;28319;48.116;10.818;2023-06-05T17:30:18;4.68;;;2.95;;
41984;SDS011;28319;48.116;10.818;2023-06-05T17:35:20;7.47;;;3.17;;
41984;SDS011;28319;48.116;10.818;2023-06-05T17:40:24;2.97;;;2.45;;
41984;SDS011;28319;48.116;10.818;2023-06-05T17:45:27;3.45;;;2.65;;
41984;SDS011;28319;48.116;10.818;2023-06-05T17:50:31;3.15;;;2.50;;
41984;SDS011;28319;48.116;10.818;2023-06-05T17:55:34;2.42;;;2.22;;
41984;SDS011;28319;48.116;10.818;2023-06-05T18:00:36;3.00;;;2.33;;
41984;SDS011;28319;48.116;10.818;2023-06-05T18:05:40;3.22;;;2.65;;
41984;SDS011;28319;48.116;10.818;2023-06-05T18:10:44;2.88;;;2.25;;
41984;SDS011;28319;48.116;10.818;2023-06-05T18:15:46;4.63;;;2.63;;
41984;SDS011;28319;48.116;10.818;2023-06-05T18:20:48;3.30;;;2.60;;
41984;SDS011;28319;48.116;10.818;2023-06-05T18:25:52;3.30;;;2.47;;
41984;SDS011;28319;48.116;10.818;2023-06-05T18:30:54;3.45;;;3.13;;
41984;SDS011;28319;48.116;10.818;2023-06-05T18:35:56;3.63;;;2.22;;
41984;SDS011;28319;48.116;10.818;2023-06-05T18:41:00;2.30;;;2.10;;
41984;SDS011;28319;48.116;10.818;2023-06-05T18:46:02;2.72;;;2.42;;
41984;SDS011;28319;48.116;10.818;2023-06-05T18:51:05;6.00;;;2.47;;
41984;SDS011;28319;48.116;10.818;2023-06-05T18:56:08;3.10;;;2.80;;
41984;SDS011;28319;48.116;10.818;2023-06-05T19:01:10;2.80;;;2.50;;
41984;SDS011;28319;48.116;10.818;2023-06-05T19:06:13;2.42;;;2.22;;
41984;SDS011;28319;48.116;10.818;2023-06-05T19:11:17;3.20;;;2.55;;
41984;SDS011;28319;48.116;10.818;2023-06-05T19:16:19;2.70;;;2.50;;
41984;SDS011;28319;48.116;10.818;2023-06-05T19:21:21;4.35;;;2.70;;
41984;SDS011;28319;48.116;10.818;2023-06-05T19:26:25;2.72;;;2.45;;
41984;SDS011;28319;48.116;10.818;2023-06-05T19:31:28;2.40;;;2.20;;
41984;SDS011;28319;48.116;10.818;2023-06-05T19:36:30;2.95;;;2.67;;
41984;SDS011;28319;48.116;10.818;2023-06-05T19:41:34;2.78;;;2.55;;
41984;SDS011;28319;48.116;10.818;2023-06-05T19:46:36;2.78;;;2.58;;
41984;SDS011;28319;48.116;10.818;2023-06-05T19:51:39;2.83;;;2.30;;
41984;SDS011;28319;48.116;10.818;2023-06-05T19:56:43;2.38;;;2.28;;
41984;SDS011;28319;48.116;10.818;2023-06-05T20:01:46;2.80;;;2.60;;
41984;SDS011;28319;48.116;10.818;2023-06-05T20:06:48;2.67;;;2.47;;
41984;SDS011;28319;48.116;10.818;2023-06-05T20:11:52;2.60;;;2.40;;
41984;SDS011;28319;48.116;10.818;2023-06-05T20:16:54;2.72;;;2.15;;
41984;SDS011;28319;48.116;10.818;2023-06-05T20:21:56;3.33;;;3.03;;
41984;SDS011;28319;48.116;10.818;2023-06-05T20:27:05;2.75;;;2.55;;
41984;SDS011;28319;48.116;10.818;2023-06-05T20:32:08;3.15;;;2.50;;
41984;SDS011;28319;48.116;10.818;2023-06-05T20:37:10;2.92;;;2.50;;
41984;SDS011;28319;48.116;10.818;2023-06-05T20:42:16;5.68;;;4.15;;
41984;SDS011;28319;48.116;10.818;2023-06-05T20:47:19;2.40;;;2.20;;
41984;SDS011;28319;48.116;10.818;2023-06-05T20:52:22;3.08;;;2.88;;
41984;SDS011;28319;48.116;10.818;2023-06-05T20:57:26;3.30;;;2.97;;
41984;SDS011;28319;48.116;10.818;2023-06-05T21:02:28;4.97;;;3.00;;
41984;SDS011;28319;48.116;10.818;2023-06-05T21:07:31;3.38;;;3.08;;
41984;SDS011;28319;48.116;10.818;2023-06-05T21:12:34;2.55;;;2.35;;
41984;SDS011;28319;48.116;10.818;2023-06-05T21:17:37;2.80;;;2.55;;
41984;SDS011;28319;48.116;10.818;2023-06-05T21:22:40;3.28;;;2.97;;
41984;SDS011;28319;48.116;10.818;2023-06-05T21:27:44;2.50;;;2.30;;
41984;SDS011;28319;48.116;10.818;2023-06-05T21:32:46;3.65;;;2.65;;
41984;SDS011;28319;48.116;10.818;2023-06-05T21:37:49;3.05;;;2.75;;
41984;SDS011;28319;48.116;10.818;2023-06-05T21:42:52;2.63;;;2.42;;
41984;SDS011;28319;48.116;10.818;2023-06-05T21:47:54;3.10;;;2.28;;
41984;SDS011;28319;48.116;10.818;2023-06-05T21:52:57;2.45;;;2.35;;
41984;SDS011;28319;48.116;10.818;2023-06-05T21:58:00;2.40;;;2.20;;
41984;SDS011;28319;48.116;10.818;2023-06-05T22:03:03;2.45;;;2.15;;
41984;SDS011;28319;48.116;10.818;2023-06-05T22:08:05;2.50;;;2.30;;
41984;SDS011;28319;48.116;10.818;2023-06-05T22:13:09;2.85;;;2.65;;
41984;SDS011;28319;48.116;10.818;2023-06-05T22:18:12;2.42;;;2.10;;
41984;SDS011;28319;48.116;10.818;2023-06-05T22:23:17;2.50;;;2.30;;
41984;SDS011;28319;48.116;10.818;2023-06-05T22:28:21;2.40;;;2.20;;
41984;SDS011;28319;48.116;10.818;2023-06-05T22:33:24;1.95;;;1.80;;
41984;SDS011;28319;48.116;10.818;2023-06-05T22:38:28;1.95;;;1.85;;
41984;SDS011;28319;48.116;10.818;2023-06-05T22:43:33;1.88;;;1.77;;
41984;SDS011;28319;48.116;10.818;2023-06-05T22:48:35;2.00;;;1.90;;
41984;SDS011;28319;48.116;10.818;2023-06-05T22:53:37;1.90;;;1.80;;
41984;SDS011;28319;48.116;10.818;2023-06-05T22:58:41;2.15;;;1.88;;
41984;SDS011;28319;48.116;10.818;2023-06-05T23:03:43;1.80;;;1.70;;
41984;SDS011;28319;48.116;10.818;2023-06-05T23:08:46;2.53;;;2.33;;
41984;SDS011;28319;48.116;10.818;2023-06-05T23:13:50;2.40;;;2.20;;
41984;SDS011;28319;48.116;10.818;2023-06-05T23:18:52;2.28;;;2.00;;
41984;SDS011;28319;48.116;10.818;2023-06-05T23:23:54;2.70;;;1.80;;
41984;SDS011;28319;48.116;10.818;2023-06-05T23:28:58;2.23;;;2.10;;
41984;SDS011;28319;48.116;10.818;2023-06-05T23:34:00;2.27;;;2.17;;
41984;SDS011;28319;48.116;10.818;2023-06-05T23:39:02;2.40;;;2.20;;
41984;SDS011;28319;48.116;10.818;2023-06-05T23:44:06;2.63;;;2.43;;
41984;SDS011;28319;48.116;10.818;2023-06-05T23:49:08;2.50;;;2.30;;
41984;SDS011;28319;48.116;10.818;2023-06-05T23:54:10;2.37;;;2.17;;
41984;SDS011;28319;48.116;10.818;2023-06-05T23:59:15;2.00;;;1.80;;
